sensor_id;sensor_type;location;lat;lon;timestamp;P1;durP1;ratioP1;P2;durP2;ratioP2
13611;SDS011;6877;51.436;6.774;2023-03-14T00:01:25;4.90;;;2.78;;
13611;SDS011;6877;51.436;6.774;2023-03-14T00:03:57;7.45;;;3.30;;
13611;SDS011;6877;51.436;6.774;2023-03-14T00:06:23;8.35;;;2.80;;
13611;SDS011;6877;51.436;6.774;2023-03-14T00:08:55;5.13;;;3.08;;
13611;SDS011;6877;51.436;6.774;2023-03-14T00:11:21;8.18;;;3.10;;
13611;SDS011;6877;51.436;6.774;2023-03-14T00:13:53;5.82;;;2.83;;
13611;SDS011;6877;51.436;6.774;2023-03-14T00:16:19;8.88;;;2.97;;
13611;SDS011;6877;51.436;6.774;2023-03-14T00:18:51;8.18;;;3.40;;
13611;SDS011;6877;51.436;6.774;2023-03-14T00:21:23;9.13;;;2.95;;
13611;SDS011;6877;51.436;6.774;2023-03-14T00:23:49;7.13;;;3.22;;
13611;SDS011;6877;51.436;6.774;2023-03-14T00:26:17;9.93;;;3.47;;
13611;SDS011;6877;51.436;6.774;2023-03-14T00:28:52;10.95;;;3.92;;
13611;SDS011;6877;51.436;6.774;2023-03-14T00:31:24;13.52;;;4.35;;
13611;SDS011;6877;51.436;6.774;2023-03-14T00:33:51;19.70;;;4.45;;
13611;SDS011;6877;51.436;6.774;2023-03-14T00:36:24;14.20;;;3.20;;
13611;SDS011;6877;51.436;6.774;2023-03-14T00:38:55;11.15;;;3.63;;
13611;SDS011;6877;51.436;6.774;2023-03-14T00:41:27;14.85;;;2.47;;
13611;SDS011;6877;51.436;6.774;2023-03-14T00:43:53;8.60;;;2.53;;
13611;SDS011;6877;51.436;6.774;2023-03-14T00:46:19;11.15;;;2.63;;
13611;SDS011;6877;51.436;6.774;2023-03-14T00:48:51;4.90;;;2.83;;
13611;SDS011;6877;51.436;6.774;2023-03-14T00:51:22;17.13;;;4.03;;
13611;SDS011;6877;51.436;6.774;2023-03-14T00:53:49;7.40;;;2.92;;
13611;SDS011;6877;51.436;6.774;2023-03-14T00:56:20;10.35;;;3.13;;
13611;SDS011;6877;51.436;6.774;2023-03-14T00:58:46;7.70;;;2.75;;
13611;SDS011;6877;51.436;6.774;2023-03-14T01:01:18;6.28;;;2.47;;
13611;SDS011;6877;51.436;6.774;2023-03-14T01:03:45;3.88;;;2.30;;
13611;SDS011;6877;51.436;6.774;2023-03-14T01:06:17;6.65;;;2.25;;
13611;SDS011;6877;51.436;6.774;2023-03-14T01:08:51;7.45;;;2.85;;
13611;SDS011;6877;51.436;6.774;2023-03-14T01:11:24;8.63;;;2.70;;
13611;SDS011;6877;51.436;6.774;2023-03-14T01:13:58;8.52;;;2.55;;
13611;SDS011;6877;51.436;6.774;2023-03-14T01:16:26;7.88;;;3.63;;
13611;SDS011;6877;51.436;6.774;2023-03-14T01:18:58;6.38;;;3.00;;
13611;SDS011;6877;51.436;6.774;2023-03-14T01:21:26;20.25;;;4.85;;
13611;SDS011;6877;51.436;6.774;2023-03-14T01:23:59;10.60;;;2.55;;
13611;SDS011;6877;51.436;6.774;2023-03-14T01:26:29;4.70;;;2.55;;
13611;SDS011;6877;51.436;6.774;2023-03-14T01:28:58;6.95;;;2.35;;
13611;SDS011;6877;51.436;6.774;2023-03-14T01:31:25;13.27;;;5.13;;
13611;SDS011;6877;51.436;6.774;2023-03-14T01:33:57;9.88;;;2.72;;
13611;SDS011;6877;51.436;6.774;2023-03-14T01:36:28;5.13;;;3.55;;
13611;SDS011;6877;51.436;6.774;2023-03-14T01:38:55;11.25;;;4.22;;
13611;SDS011;6877;51.436;6.774;2023-03-14T01:41:26;9.98;;;4.40;;
13611;SDS011;6877;51.436;6.774;2023-03-14T01:43:58;4.75;;;2.80;;
13611;SDS011;6877;51.436;6.774;2023-03-14T01:52:01;14.05;;;5.05;;
13611;SDS011;6877;51.436;6.774;2023-03-14T01:57:16;12.77;;;4.13;;
13611;SDS011;6877;51.436;6.774;2023-03-14T01:59:54;14.63;;;4.97;;
13611;SDS011;6877;51.436;6.774;2023-03-14T02:02:29;6.57;;;3.88;;
13611;SDS011;6877;51.436;6.774;2023-03-14T02:05:01;9.23;;;4.40;;
13611;SDS011;6877;51.436;6.774;2023-03-14T02:07:50;11.40;;;5.05;;
13611;SDS011;6877;51.436;6.774;2023-03-14T02:10:27;19.25;;;5.32;;
13611;SDS011;6877;51.436;6.774;2023-03-14T02:13:02;10.02;;;3.80;;
13611;SDS011;6877;51.436;6.774;2023-03-14T02:15:35;10.98;;;2.97;;
13611;SDS011;6877;51.436;6.774;2023-03-14T02:18:07;12.30;;;3.35;;
13611;SDS011;6877;51.436;6.774;2023-03-14T02:26:20;10.23;;;5.47;;
13611;SDS011;6877;51.436;6.774;2023-03-14T02:28:53;11.50;;;4.10;;
13611;SDS011;6877;51.436;6.774;2023-03-14T02:31:24;15.00;;;5.95;;
13611;SDS011;6877;51.436;6.774;2023-03-14T02:33:56;14.38;;;5.15;;
13611;SDS011;6877;51.436;6.774;2023-03-14T02:36:24;9.95;;;4.50;;
13611;SDS011;6877;51.436;6.774;2023-03-14T02:41:26;15.57;;;4.55;;
13611;SDS011;6877;51.436;6.774;2023-03-14T02:43:57;9.70;;;2.95;;
13611;SDS011;6877;51.436;6.774;2023-03-14T02:46:29;7.15;;;2.60;;
13611;SDS011;6877;51.436;6.774;2023-03-14T02:49:03;5.38;;;2.50;;
13611;SDS011;6877;51.436;6.774;2023-03-14T02:51:38;6.93;;;3.33;;
13611;SDS011;6877;51.436;6.774;2023-03-14T02:54:07;13.25;;;3.60;;
13611;SDS011;6877;51.436;6.774;2023-03-14T02:56:39;5.15;;;2.03;;
13611;SDS011;6877;51.436;6.774;2023-03-14T02:59:10;14.30;;;3.50;;
13611;SDS011;6877;51.436;6.774;2023-03-14T03:01:42;6.93;;;2.83;;
13611;SDS011;6877;51.436;6.774;2023-03-14T03:04:13;8.20;;;2.88;;
13611;SDS011;6877;51.436;6.774;2023-03-14T03:06:44;6.75;;;2.30;;
13611;SDS011;6877;51.436;6.774;2023-03-14T03:09:16;13.55;;;2.53;;
13611;SDS011;6877;51.436;6.774;2023-03-14T03:11:42;21.65;;;4.95;;
13611;SDS011;6877;51.436;6.774;2023-03-14T03:14:13;7.82;;;1.95;;
13611;SDS011;6877;51.436;6.774;2023-03-14T03:16:45;8.38;;;1.85;;
13611;SDS011;6877;51.436;6.774;2023-03-14T03:19:16;5.38;;;2.90;;
13611;SDS011;6877;51.436;6.774;2023-03-14T03:21:48;5.65;;;2.17;;
13611;SDS011;6877;51.436;6.774;2023-03-14T03:24:19;8.68;;;1.90;;
13611;SDS011;6877;51.436;6.774;2023-03-14T03:26:46;3.03;;;1.92;;
13611;SDS011;6877;51.436;6.774;2023-03-14T03:29:12;6.40;;;2.17;;
13611;SDS011;6877;51.436;6.774;2023-03-14T03:31:44;7.80;;;2.30;;
13611;SDS011;6877;51.436;6.774;2023-03-14T03:34:16;8.57;;;5.22;;
13611;SDS011;6877;51.436;6.774;2023-03-14T03:36:42;6.50;;;2.08;;
13611;SDS011;6877;51.436;6.774;2023-03-14T03:39:14;5.78;;;2.13;;
13611;SDS011;6877;51.436;6.774;2023-03-14T03:41:40;5.65;;;2.03;;
13611;SDS011;6877;51.436;6.774;2023-03-14T03:44:11;7.80;;;2.33;;
13611;SDS011;6877;51.436;6.774;2023-03-14T03:46:38;7.78;;;2.72;;
13611;SDS011;6877;51.436;6.774;2023-03-14T03:49:10;10.35;;;3.42;;
13611;SDS011;6877;51.436;6.774;2023-03-14T03:51:41;12.18;;;3.03;;
13611;SDS011;6877;51.436;6.774;2023-03-14T03:54:07;10.77;;;2.78;;
13611;SDS011;6877;51.436;6.774;2023-03-14T03:56:39;8.00;;;3.58;;
13611;SDS011;6877;51.436;6.774;2023-03-14T03:59:10;8.38;;;2.90;;
13611;SDS011;6877;51.436;6.774;2023-03-14T04:01:41;7.07;;;2.60;;
13611;SDS011;6877;51.436;6.774;2023-03-14T04:04:13;4.47;;;2.28;;
13611;SDS011;6877;51.436;6.774;2023-03-14T04:06:45;7.43;;;2.33;;
13611;SDS011;6877;51.436;6.774;2023-03-14T04:09:11;7.03;;;2.30;;
13611;SDS011;6877;51.436;6.774;2023-03-14T04:11:43;5.15;;;2.10;;
13611;SDS011;6877;51.436;6.774;2023-03-14T04:14:14;9.40;;;2.80;;
13611;SDS011;6877;51.436;6.774;2023-03-14T04:16:46;17.33;;;3.30;;
13611;SDS011;6877;51.436;6.774;2023-03-14T04:19:17;11.32;;;3.50;;
13611;SDS011;6877;51.436;6.774;2023-03-14T04:21:49;8.65;;;3.08;;
13611;SDS011;6877;51.436;6.774;2023-03-14T04:24:20;5.53;;;2.20;;
13611;SDS011;6877;51.436;6.774;2023-03-14T04:26:52;6.07;;;2.42;;
13611;SDS011;6877;51.436;6.774;2023-03-14T04:29:23;7.88;;;2.67;;
13611;SDS011;6877;51.436;6.774;2023-03-14T04:31:54;5.70;;;2.25;;
13611;SDS011;6877;51.436;6.774;2023-03-14T04:34:26;7.10;;;3.22;;
13611;SDS011;6877;51.436;6.774;2023-03-14T04:36:52;5.57;;;2.35;;
13611;SDS011;6877;51.436;6.774;2023-03-14T04:39:23;5.82;;;2.05;;
13611;SDS011;6877;51.436;6.774;2023-03-14T04:41:55;5.40;;;1.80;;
13611;SDS011;6877;51.436;6.774;2023-03-14T04:44:26;7.15;;;1.80;;
13611;SDS011;6877;51.436;6.774;2023-03-14T04:46:53;4.70;;;1.40;;
13611;SDS011;6877;51.436;6.774;2023-03-14T04:49:24;8.95;;;1.73;;
13611;SDS011;6877;51.436;6.774;2023-03-14T04:51:55;9.38;;;2.17;;
13611;SDS011;6877;51.436;6.774;2023-03-14T04:54:27;10.25;;;2.20;;
13611;SDS011;6877;51.436;6.774;2023-03-14T04:56:53;5.72;;;1.95;;
13611;SDS011;6877;51.436;6.774;2023-03-14T04:59:19;5.85;;;3.25;;
13611;SDS011;6877;51.436;6.774;2023-03-14T05:01:51;7.20;;;4.15;;
13611;SDS011;6877;51.436;6.774;2023-03-14T05:04:22;8.82;;;4.03;;
13611;SDS011;6877;51.436;6.774;2023-03-14T05:06:53;12.88;;;4.35;;
13611;SDS011;6877;51.436;6.774;2023-03-14T05:09:20;7.22;;;3.88;;
13611;SDS011;6877;51.436;6.774;2023-03-14T05:11:46;8.70;;;3.88;;
13611;SDS011;6877;51.436;6.774;2023-03-14T05:14:18;11.40;;;3.58;;
13611;SDS011;6877;51.436;6.774;2023-03-14T05:16:49;3.92;;;2.65;;
13611;SDS011;6877;51.436;6.774;2023-03-14T05:19:20;3.92;;;2.45;;
13611;SDS011;6877;51.436;6.774;2023-03-14T05:21:47;2.95;;;2.05;;
13611;SDS011;6877;51.436;6.774;2023-03-14T05:24:18;2.45;;;1.60;;
13611;SDS011;6877;51.436;6.774;2023-03-14T05:26:44;2.35;;;1.80;;
13611;SDS011;6877;51.436;6.774;2023-03-14T05:29:11;2.15;;;1.67;;
13611;SDS011;6877;51.436;6.774;2023-03-14T05:31:37;2.53;;;1.77;;
13611;SDS011;6877;51.436;6.774;2023-03-14T05:34:04;4.03;;;1.77;;
13611;SDS011;6877;51.436;6.774;2023-03-14T05:36:35;1.48;;;1.38;;
13611;SDS011;6877;51.436;6.774;2023-03-14T05:39:02;2.17;;;1.48;;
13611;SDS011;6877;51.436;6.774;2023-03-14T05:41:33;5.63;;;1.90;;
13611;SDS011;6877;51.436;6.774;2023-03-14T05:44:05;7.57;;;2.85;;
13611;SDS011;6877;51.436;6.774;2023-03-14T05:46:31;6.28;;;3.00;;
13611;SDS011;6877;51.436;6.774;2023-03-14T05:49:02;10.18;;;4.38;;
13611;SDS011;6877;51.436;6.774;2023-03-14T05:51:29;10.32;;;5.03;;
13611;SDS011;6877;51.436;6.774;2023-03-14T05:53:55;12.30;;;5.53;;
13611;SDS011;6877;51.436;6.774;2023-03-14T05:56:27;14.80;;;6.03;;
13611;SDS011;6877;51.436;6.774;2023-03-14T05:58:53;13.95;;;5.80;;
13611;SDS011;6877;51.436;6.774;2023-03-14T06:01:19;10.98;;;5.50;;
13611;SDS011;6877;51.436;6.774;2023-03-14T06:03:51;6.25;;;3.00;;
13611;SDS011;6877;51.436;6.774;2023-03-14T06:06:22;9.07;;;2.70;;
13611;SDS011;6877;51.436;6.774;2023-03-14T06:08:53;4.05;;;2.50;;
13611;SDS011;6877;51.436;6.774;2023-03-14T06:11:25;8.13;;;2.38;;
13611;SDS011;6877;51.436;6.774;2023-03-14T06:13:56;7.75;;;2.30;;
13611;SDS011;6877;51.436;6.774;2023-03-14T06:16:27;10.27;;;3.45;;
13611;SDS011;6877;51.436;6.774;2023-03-14T06:18:54;10.20;;;3.40;;
13611;SDS011;6877;51.436;6.774;2023-03-14T06:21:25;7.38;;;3.42;;
13611;SDS011;6877;51.436;6.774;2023-03-14T06:23:51;9.23;;;3.00;;
13611;SDS011;6877;51.436;6.774;2023-03-14T06:26:23;8.00;;;3.90;;
13611;SDS011;6877;51.436;6.774;2023-03-14T06:28:49;6.95;;;4.07;;
13611;SDS011;6877;51.436;6.774;2023-03-14T06:31:21;5.25;;;3.10;;
13611;SDS011;6877;51.436;6.774;2023-03-14T06:33:48;6.45;;;3.35;;
13611;SDS011;6877;51.436;6.774;2023-03-14T06:36:14;3.40;;;2.38;;
13611;SDS011;6877;51.436;6.774;2023-03-14T06:38:46;2.50;;;2.10;;
13611;SDS011;6877;51.436;6.774;2023-03-14T06:41:12;4.95;;;1.70;;
13611;SDS011;6877;51.436;6.774;2023-03-14T06:43:43;3.30;;;1.65;;
13611;SDS011;6877;51.436;6.774;2023-03-14T06:46:15;3.38;;;1.77;;
13611;SDS011;6877;51.436;6.774;2023-03-14T06:48:46;3.65;;;1.77;;
13611;SDS011;6877;51.436;6.774;2023-03-14T06:51:13;1.98;;;1.23;;
13611;SDS011;6877;51.436;6.774;2023-03-14T06:53:44;1.65;;;1.38;;
13611;SDS011;6877;51.436;6.774;2023-03-14T06:56:15;1.27;;;1.17;;
13611;SDS011;6877;51.436;6.774;2023-03-14T06:58:47;1.38;;;1.25;;
13611;SDS011;6877;51.436;6.774;2023-03-14T07:01:17;1.98;;;1.85;;
13611;SDS011;6877;51.436;6.774;2023-03-14T07:03:49;1.20;;;1.10;;
13611;SDS011;6877;51.436;6.774;2023-03-14T07:06:21;1.48;;;1.20;;
13611;SDS011;6877;51.436;6.774;2023-03-14T07:08:53;1.95;;;1.52;;
13611;SDS011;6877;51.436;6.774;2023-03-14T07:11:20;3.28;;;1.35;;
13611;SDS011;6877;51.436;6.774;2023-03-14T07:13:51;3.90;;;1.70;;
13611;SDS011;6877;51.436;6.774;2023-03-14T07:16:22;1.90;;;1.80;;
13611;SDS011;6877;51.436;6.774;2023-03-14T07:18:54;2.00;;;1.80;;
13611;SDS011;6877;51.436;6.774;2023-03-14T07:21:20;2.13;;;1.60;;
13611;SDS011;6877;51.436;6.774;2023-03-14T07:23:47;4.72;;;1.70;;
13611;SDS011;6877;51.436;6.774;2023-03-14T07:26:18;2.72;;;1.70;;
13611;SDS011;6877;51.436;6.774;2023-03-14T07:28:44;1.70;;;1.60;;
13611;SDS011;6877;51.436;6.774;2023-03-14T07:31:11;3.17;;;1.35;;
13611;SDS011;6877;51.436;6.774;2023-03-14T07:33:37;1.45;;;1.35;;
13611;SDS011;6877;51.436;6.774;2023-03-14T07:36:09;1.95;;;1.42;;
13611;SDS011;6877;51.436;6.774;2023-03-14T07:38:41;1.88;;;1.55;;
13611;SDS011;6877;51.436;6.774;2023-03-14T07:41:12;1.63;;;1.50;;
13611;SDS011;6877;51.436;6.774;2023-03-14T07:43:44;1.65;;;1.50;;
13611;SDS011;6877;51.436;6.774;2023-03-14T07:46:15;1.90;;;1.58;;
13611;SDS011;6877;51.436;6.774;2023-03-14T07:48:42;1.60;;;1.50;;
13611;SDS011;6877;51.436;6.774;2023-03-14T07:51:08;1.90;;;1.60;;
13611;SDS011;6877;51.436;6.774;2023-03-14T07:53:40;3.70;;;1.70;;
13611;SDS011;6877;51.436;6.774;2023-03-14T07:56:11;2.00;;;1.70;;
13611;SDS011;6877;51.436;6.774;2023-03-14T07:58:42;4.13;;;2.30;;
13611;SDS011;6877;51.436;6.774;2023-03-14T08:01:14;2.10;;;1.90;;
13611;SDS011;6877;51.436;6.774;2023-03-14T08:03:40;4.40;;;2.00;;
13611;SDS011;6877;51.436;6.774;2023-03-14T08:06:12;2.20;;;1.95;;
13611;SDS011;6877;51.436;6.774;2023-03-14T08:08:38;2.75;;;2.00;;
13611;SDS011;6877;51.436;6.774;2023-03-14T08:11:09;2.17;;;1.98;;
13611;SDS011;6877;51.436;6.774;2023-03-14T08:13:41;2.28;;;2.08;;
13611;SDS011;6877;51.436;6.774;2023-03-14T08:16:08;3.53;;;2.60;;
13611;SDS011;6877;51.436;6.774;2023-03-14T08:18:34;3.28;;;2.38;;
13611;SDS011;6877;51.436;6.774;2023-03-14T08:21:00;4.90;;;2.70;;
13611;SDS011;6877;51.436;6.774;2023-03-14T08:23:27;5.28;;;3.10;;
13611;SDS011;6877;51.436;6.774;2023-03-14T08:25:58;5.72;;;2.47;;
13611;SDS011;6877;51.436;6.774;2023-03-14T08:28:25;2.63;;;2.05;;
13611;SDS011;6877;51.436;6.774;2023-03-14T08:30:56;2.28;;;1.83;;
13611;SDS011;6877;51.436;6.774;2023-03-14T08:33:23;2.17;;;1.95;;
13611;SDS011;6877;51.436;6.774;2023-03-14T08:35:56;2.13;;;1.73;;
13611;SDS011;6877;51.436;6.774;2023-03-14T08:38:29;4.60;;;2.08;;
13611;SDS011;6877;51.436;6.774;2023-03-14T08:41:01;2.88;;;1.90;;
13611;SDS011;6877;51.436;6.774;2023-03-14T08:43:33;3.45;;;2.15;;
13611;SDS011;6877;51.436;6.774;2023-03-14T08:46:00;5.20;;;2.40;;
13611;SDS011;6877;51.436;6.774;2023-03-14T08:48:32;2.78;;;2.15;;
13611;SDS011;6877;51.436;6.774;2023-03-14T08:51:09;2.65;;;2.30;;
13611;SDS011;6877;51.436;6.774;2023-03-14T08:53:44;6.97;;;3.65;;
13611;SDS011;6877;51.436;6.774;2023-03-14T08:56:11;6.82;;;3.40;;
13611;SDS011;6877;51.436;6.774;2023-03-14T08:58:42;9.70;;;4.13;;
13611;SDS011;6877;51.436;6.774;2023-03-14T09:01:14;5.50;;;3.90;;
13611;SDS011;6877;51.436;6.774;2023-03-14T09:03:41;5.97;;;3.83;;
13611;SDS011;6877;51.436;6.774;2023-03-14T09:06:12;4.00;;;2.67;;
13611;SDS011;6877;51.436;6.774;2023-03-14T09:08:44;3.22;;;2.03;;
13611;SDS011;6877;51.436;6.774;2023-03-14T09:11:16;10.23;;;3.78;;
13611;SDS011;6877;51.436;6.774;2023-03-14T09:13:49;3.10;;;1.98;;
13611;SDS011;6877;51.436;6.774;2023-03-14T09:16:20;4.93;;;1.65;;
13611;SDS011;6877;51.436;6.774;2023-03-14T09:18:47;2.10;;;1.40;;
13611;SDS011;6877;51.436;6.774;2023-03-14T09:21:18;8.35;;;1.85;;
13611;SDS011;6877;51.436;6.774;2023-03-14T09:23:50;9.95;;;2.10;;
13611;SDS011;6877;51.436;6.774;2023-03-14T09:26:16;6.50;;;1.40;;
13611;SDS011;6877;51.436;6.774;2023-03-14T09:28:43;1.45;;;1.35;;
13611;SDS011;6877;51.436;6.774;2023-03-14T09:31:10;6.47;;;1.73;;
13611;SDS011;6877;51.436;6.774;2023-03-14T09:33:42;8.32;;;1.85;;
13611;SDS011;6877;51.436;6.774;2023-03-14T09:36:13;6.88;;;2.10;;
13611;SDS011;6877;51.436;6.774;2023-03-14T09:38:39;5.10;;;2.03;;
13611;SDS011;6877;51.436;6.774;2023-03-14T09:41:18;2.58;;;1.45;;
13611;SDS011;6877;51.436;6.774;2023-03-14T09:44:06;4.57;;;2.25;;
13611;SDS011;6877;51.436;6.774;2023-03-14T09:46:43;13.15;;;2.33;;
13611;SDS011;6877;51.436;6.774;2023-03-14T09:49:30;4.75;;;3.63;;
13611;SDS011;6877;51.436;6.774;2023-03-14T09:52:24;7.55;;;2.22;;
13611;SDS011;6877;51.436;6.774;2023-03-14T09:55:05;2.75;;;2.17;;
13611;SDS011;6877;51.436;6.774;2023-03-14T09:57:42;10.40;;;2.85;;
13611;SDS011;6877;51.436;6.774;2023-03-14T10:00:14;10.50;;;2.85;;
13611;SDS011;6877;51.436;6.774;2023-03-14T10:02:46;7.57;;;2.80;;
13611;SDS011;6877;51.436;6.774;2023-03-14T10:05:19;8.55;;;2.70;;
13611;SDS011;6877;51.436;6.774;2023-03-14T10:07:47;6.68;;;2.50;;
13611;SDS011;6877;51.436;6.774;2023-03-14T10:10:22;10.23;;;4.00;;
13611;SDS011;6877;51.436;6.774;2023-03-14T10:15:29;7.13;;;2.70;;
13611;SDS011;6877;51.436;6.774;2023-03-14T10:18:04;5.20;;;2.45;;
13611;SDS011;6877;51.436;6.774;2023-03-14T10:20:39;9.32;;;3.00;;
13611;SDS011;6877;51.436;6.774;2023-03-14T10:28:38;3.30;;;2.08;;
13611;SDS011;6877;51.436;6.774;2023-03-14T10:31:15;6.22;;;2.10;;
13611;SDS011;6877;51.436;6.774;2023-03-14T10:33:41;5.00;;;1.75;;
13611;SDS011;6877;51.436;6.774;2023-03-14T10:38:50;8.05;;;2.17;;
13611;SDS011;6877;51.436;6.774;2023-03-14T10:41:50;4.72;;;2.67;;
13611;SDS011;6877;51.436;6.774;2023-03-14T10:44:24;6.00;;;2.80;;
13611;SDS011;6877;51.436;6.774;2023-03-14T10:46:58;3.75;;;2.00;;
13611;SDS011;6877;51.436;6.774;2023-03-14T10:49:33;4.07;;;1.70;;
13611;SDS011;6877;51.436;6.774;2023-03-14T10:52:11;4.07;;;2.63;;
13611;SDS011;6877;51.436;6.774;2023-03-14T10:55:08;5.03;;;2.30;;
13611;SDS011;6877;51.436;6.774;2023-03-14T10:57:40;6.55;;;2.50;;
13611;SDS011;6877;51.436;6.774;2023-03-14T11:00:14;5.80;;;2.55;;
13611;SDS011;6877;51.436;6.774;2023-03-14T11:05:46;2.90;;;1.88;;
13611;SDS011;6877;51.436;6.774;2023-03-14T11:08:31;2.00;;;1.80;;
13611;SDS011;6877;51.436;6.774;2023-03-14T11:13:54;2.38;;;2.10;;
13611;SDS011;6877;51.436;6.774;2023-03-14T11:30:35;5.93;;;2.63;;
13611;SDS011;6877;51.436;6.774;2023-03-14T11:33:16;3.90;;;2.40;;
13611;SDS011;6877;51.436;6.774;2023-03-14T11:35:54;8.10;;;2.97;;
13611;SDS011;6877;51.436;6.774;2023-03-14T11:41:03;3.97;;;1.92;;
13611;SDS011;6877;51.436;6.774;2023-03-14T11:43:41;6.43;;;2.47;;
13611;SDS011;6877;51.436;6.774;2023-03-14T11:46:18;6.13;;;2.20;;
13611;SDS011;6877;51.436;6.774;2023-03-14T11:51:56;5.93;;;3.50;;
13611;SDS011;6877;51.436;6.774;2023-03-14T11:57:03;3.03;;;1.98;;
13611;SDS011;6877;51.436;6.774;2023-03-14T12:02:22;6.85;;;1.70;;
13611;SDS011;6877;51.436;6.774;2023-03-14T12:10:40;6.72;;;2.92;;
13611;SDS011;6877;51.436;6.774;2023-03-14T12:13:16;8.60;;;3.08;;
13611;SDS011;6877;51.436;6.774;2023-03-14T12:15:53;4.88;;;2.95;;
13611;SDS011;6877;51.436;6.774;2023-03-14T12:21:12;11.15;;;3.80;;
13611;SDS011;6877;51.436;6.774;2023-03-14T12:23:51;10.60;;;3.92;;
13611;SDS011;6877;51.436;6.774;2023-03-14T12:26:25;14.48;;;2.83;;
13611;SDS011;6877;51.436;6.774;2023-03-14T12:39:13;8.30;;;2.00;;
13611;SDS011;6877;51.436;6.774;2023-03-14T12:45:43;8.00;;;2.60;;
13611;SDS011;6877;51.436;6.774;2023-03-14T12:50:28;17.08;;;3.50;;
13611;SDS011;6877;51.436;6.774;2023-03-14T12:55:46;8.15;;;3.20;;
13611;SDS011;6877;51.436;6.774;2023-03-14T13:01:14;13.23;;;4.03;;
13611;SDS011;6877;51.436;6.774;2023-03-14T13:03:47;20.05;;;5.43;;
13611;SDS011;6877;51.436;6.774;2023-03-14T13:12:13;12.63;;;2.45;;
13611;SDS011;6877;51.436;6.774;2023-03-14T13:14:47;14.77;;;4.10;;
13611;SDS011;6877;51.436;6.774;2023-03-14T13:17:16;22.65;;;4.35;;
13611;SDS011;6877;51.436;6.774;2023-03-14T13:19:55;17.75;;;6.07;;
13611;SDS011;6877;51.436;6.774;2023-03-14T13:22:30;12.27;;;4.78;;
13611;SDS011;6877;51.436;6.774;2023-03-14T13:25:09;17.63;;;4.70;;
13611;SDS011;6877;51.436;6.774;2023-03-14T13:27:42;14.13;;;4.97;;
13611;SDS011;6877;51.436;6.774;2023-03-14T13:30:22;18.13;;;4.38;;
13611;SDS011;6877;51.436;6.774;2023-03-14T13:32:51;18.98;;;4.25;;
13611;SDS011;6877;51.436;6.774;2023-03-14T13:37:56;10.52;;;4.07;;
13611;SDS011;6877;51.436;6.774;2023-03-14T13:40:26;19.88;;;4.78;;
13611;SDS011;6877;51.436;6.774;2023-03-14T13:43:09;21.15;;;4.57;;
13611;SDS011;6877;51.436;6.774;2023-03-14T13:45:48;19.63;;;4.15;;
13611;SDS011;6877;51.436;6.774;2023-03-14T13:48:15;11.88;;;4.32;;
13611;SDS011;6877;51.436;6.774;2023-03-14T13:51:06;15.63;;;3.95;;
13611;SDS011;6877;51.436;6.774;2023-03-14T13:53:42;20.50;;;3.85;;
13611;SDS011;6877;51.436;6.774;2023-03-14T13:56:18;13.60;;;3.83;;
13611;SDS011;6877;51.436;6.774;2023-03-14T13:58:46;16.35;;;3.05;;
13611;SDS011;6877;51.436;6.774;2023-03-14T14:01:18;16.85;;;4.18;;
13611;SDS011;6877;51.436;6.774;2023-03-14T14:03:48;15.18;;;4.03;;
13611;SDS011;6877;51.436;6.774;2023-03-14T14:06:27;14.00;;;3.70;;
13611;SDS011;6877;51.436;6.774;2023-03-14T14:09:01;17.65;;;4.22;;
13611;SDS011;6877;51.436;6.774;2023-03-14T14:11:48;15.55;;;4.85;;
13611;SDS011;6877;51.436;6.774;2023-03-14T14:14:29;17.02;;;4.47;;
13611;SDS011;6877;51.436;6.774;2023-03-14T14:17:03;11.10;;;3.55;;
13611;SDS011;6877;51.436;6.774;2023-03-14T14:19:34;17.67;;;4.25;;
13611;SDS011;6877;51.436;6.774;2023-03-14T14:22:02;24.80;;;5.10;;
13611;SDS011;6877;51.436;6.774;2023-03-14T14:24:31;13.63;;;2.92;;
13611;SDS011;6877;51.436;6.774;2023-03-14T14:27:14;20.50;;;4.05;;
13611;SDS011;6877;51.436;6.774;2023-03-14T14:29:56;13.00;;;3.70;;
13611;SDS011;6877;51.436;6.774;2023-03-14T14:32:37;11.02;;;2.67;;
13611;SDS011;6877;51.436;6.774;2023-03-14T14:35:04;6.38;;;2.42;;
13611;SDS011;6877;51.436;6.774;2023-03-14T14:37:43;9.13;;;2.47;;
13611;SDS011;6877;51.436;6.774;2023-03-14T14:40:22;10.05;;;3.15;;
13611;SDS011;6877;51.436;6.774;2023-03-14T14:42:51;8.10;;;2.15;;
13611;SDS011;6877;51.436;6.774;2023-03-14T14:45:22;8.77;;;2.53;;
13611;SDS011;6877;51.436;6.774;2023-03-14T14:47:57;12.07;;;2.83;;
13611;SDS011;6877;51.436;6.774;2023-03-14T14:50:31;11.73;;;2.70;;
13611;SDS011;6877;51.436;6.774;2023-03-14T14:53:03;11.15;;;3.47;;
13611;SDS011;6877;51.436;6.774;2023-03-14T14:55:54;4.65;;;2.10;;
13611;SDS011;6877;51.436;6.774;2023-03-14T15:03:54;6.43;;;2.13;;
13611;SDS011;6877;51.436;6.774;2023-03-14T15:06:20;9.05;;;3.05;;
13611;SDS011;6877;51.436;6.774;2023-03-14T15:08:50;11.70;;;4.13;;
13611;SDS011;6877;51.436;6.774;2023-03-14T15:11:22;12.15;;;3.95;;
13611;SDS011;6877;51.436;6.774;2023-03-14T15:13:55;10.02;;;3.50;;
13611;SDS011;6877;51.436;6.774;2023-03-14T15:16:23;16.13;;;3.47;;
13611;SDS011;6877;51.436;6.774;2023-03-14T15:18:59;10.73;;;3.17;;
13611;SDS011;6877;51.436;6.774;2023-03-14T15:21:27;11.30;;;3.05;;
13611;SDS011;6877;51.436;6.774;2023-03-14T15:23:59;12.75;;;3.45;;
13611;SDS011;6877;51.436;6.774;2023-03-14T15:26:30;8.75;;;2.42;;
13611;SDS011;6877;51.436;6.774;2023-03-14T15:29:02;8.48;;;2.47;;
13611;SDS011;6877;51.436;6.774;2023-03-14T15:31:34;7.90;;;2.92;;
13611;SDS011;6877;51.436;6.774;2023-03-14T15:34:06;4.97;;;2.13;;
13611;SDS011;6877;51.436;6.774;2023-03-14T15:36:34;7.18;;;1.85;;
13611;SDS011;6877;51.436;6.774;2023-03-14T15:39:02;6.22;;;2.55;;
13611;SDS011;6877;51.436;6.774;2023-03-14T15:41:30;5.03;;;2.10;;
13611;SDS011;6877;51.436;6.774;2023-03-14T15:44:01;9.52;;;2.20;;
13611;SDS011;6877;51.436;6.774;2023-03-14T15:46:27;12.45;;;2.30;;
13611;SDS011;6877;51.436;6.774;2023-03-14T15:48:54;10.18;;;3.05;;
13611;SDS011;6877;51.436;6.774;2023-03-14T15:51:20;7.30;;;2.47;;
13611;SDS011;6877;51.436;6.774;2023-03-14T15:53:47;8.93;;;2.90;;
13611;SDS011;6877;51.436;6.774;2023-03-14T15:56:17;5.00;;;2.25;;
13611;SDS011;6877;51.436;6.774;2023-03-14T15:58:49;11.38;;;2.88;;
13611;SDS011;6877;51.436;6.774;2023-03-14T16:01:17;7.50;;;2.65;;
13611;SDS011;6877;51.436;6.774;2023-03-14T16:03:43;9.60;;;2.50;;
13611;SDS011;6877;51.436;6.774;2023-03-14T16:06:11;6.35;;;2.80;;
13611;SDS011;6877;51.436;6.774;2023-03-14T16:08:38;11.10;;;2.70;;
13611;SDS011;6877;51.436;6.774;2023-03-14T16:11:04;11.88;;;2.60;;
13611;SDS011;6877;51.436;6.774;2023-03-14T16:13:36;17.65;;;4.40;;
13611;SDS011;6877;51.436;6.774;2023-03-14T16:16:04;7.05;;;2.20;;
13611;SDS011;6877;51.436;6.774;2023-03-14T16:18:37;11.23;;;3.33;;
13611;SDS011;6877;51.436;6.774;2023-03-14T16:21:16;10.10;;;4.15;;
13611;SDS011;6877;51.436;6.774;2023-03-14T16:23:49;6.05;;;2.80;;
13611;SDS011;6877;51.436;6.774;2023-03-14T16:26:21;7.68;;;3.40;;
13611;SDS011;6877;51.436;6.774;2023-03-14T16:28:52;6.05;;;2.60;;
13611;SDS011;6877;51.436;6.774;2023-03-14T16:31:19;10.52;;;2.90;;
13611;SDS011;6877;51.436;6.774;2023-03-14T16:33:55;7.03;;;2.67;;
13611;SDS011;6877;51.436;6.774;2023-03-14T16:36:26;7.18;;;3.35;;
13611;SDS011;6877;51.436;6.774;2023-03-14T16:38:58;15.30;;;3.95;;
13611;SDS011;6877;51.436;6.774;2023-03-14T16:41:30;6.88;;;2.10;;
13611;SDS011;6877;51.436;6.774;2023-03-14T16:44:01;10.32;;;2.50;;
13611;SDS011;6877;51.436;6.774;2023-03-14T16:46:33;7.53;;;2.42;;
13611;SDS011;6877;51.436;6.774;2023-03-14T16:49:06;5.10;;;2.85;;
13611;SDS011;6877;51.436;6.774;2023-03-14T16:51:32;13.55;;;3.10;;
13611;SDS011;6877;51.436;6.774;2023-03-14T16:54:04;10.77;;;3.15;;
13611;SDS011;6877;51.436;6.774;2023-03-14T16:56:30;7.97;;;4.20;;
13611;SDS011;6877;51.436;6.774;2023-03-14T16:59:01;9.73;;;2.65;;
13611;SDS011;6877;51.436;6.774;2023-03-14T17:01:33;8.32;;;2.75;;
13611;SDS011;6877;51.436;6.774;2023-03-14T17:04:04;16.08;;;3.25;;
13611;SDS011;6877;51.436;6.774;2023-03-14T17:06:39;5.65;;;2.50;;